Time;durP1;ratioP1;P1;durP2;ratioP2;P2;SDS_P1;SDS_P2;PMS_P1;PMS_P2;Temp;Humidity;BMP_temperature;BMP_pressure;BME280_temperature;BME280_humidity;BME280_pressure;Samples;Min_cycle;Max_cycle;Signal;HPM_P1;HPM_P2
2021/05/28 00:03:26;;;;;;;15.40;7.27;;;10.40;99.90;;;;;;6729594;88;20925;-77
2021/05/28 00:13:26;;;;;;;21.37;7.78;;;10.40;99.90;;;;;;6729565;88;20383;-75
2021/05/28 00:23:27;;;;;;;17.80;7.40;;;10.40;99.90;;;;;;6731405;88;20264;-77
2021/05/28 00:33:27;;;;;;;16.30;7.55;;;10.30;99.90;;;;;;6728320;88;20189;-76
2021/05/28 00:43:28;;;;;;;15.82;7.68;;;10.30;99.90;;;;;;6730057;88;20219;-76
2021/05/28 00:53:29;;;;;;;20.12;8.15;;;10.30;99.90;;;;;;6728176;88;20230;-77
2021/05/28 01:03:29;;;;;;;21.77;7.57;;;10.30;99.90;;;;;;6728285;88;20314;-76
2021/05/28 01:13:30;;;;;;;13.20;7.40;;;10.20;99.90;;;;;;6729491;88;20206;-76
2021/05/28 01:23:30;;;;;;;17.48;8.13;;;10.20;99.90;;;;;;6727645;88;20252;-76
2021/05/28 01:33:31;;;;;;;16.65;8.20;;;10.20;99.90;;;;;;6731983;88;20193;-76
2021/05/28 01:43:32;;;;;;;19.00;8.23;;;10.30;99.90;;;;;;6739364;88;20617;-76
2021/05/28 01:53:33;;;;;;;16.37;8.23;;;10.30;99.90;;;;;;6729494;88;20683;-76
2021/05/28 02:03:33;;;;;;;17.05;7.87;;;10.30;99.90;;;;;;6734032;88;20215;-75
2021/05/28 02:13:34;;;;;;;15.25;8.05;;;10.30;99.90;;;;;;6725627;88;20310;-75
2021/05/28 02:23:34;;;;;;;20.55;8.35;;;10.20;99.90;;;;;;6728270;88;20189;-76
2021/05/28 02:33:38;;;;;;;15.57;8.32;;;10.20;99.90;;;;;;6727377;88;20198;-75
2021/05/28 02:43:39;;;;;;;16.85;7.60;;;10.30;99.90;;;;;;6727556;88;20189;-77
2021/05/28 02:53:39;;;;;;;16.13;8.07;;;10.30;99.90;;;;;;6724273;88;20224;-76
2021/05/28 03:03:40;;;;;;;14.77;8.10;;;10.30;99.90;;;;;;6725254;88;20197;-76
2021/05/28 03:13:40;;;;;;;18.58;7.50;;;10.00;99.90;;;;;;6727276;88;20310;-76
2021/05/28 03:23:41;;;;;;;19.67;8.27;;;9.60;99.90;;;;;;6729423;88;20224;-77
2021/05/28 03:33:42;;;;;;;18.37;8.82;;;9.40;99.90;;;;;;6730128;88;20714;-76
2021/05/28 03:43:43;;;;;;;20.02;9.40;;;9.20;99.90;;;;;;6726247;88;20206;-77
2021/05/28 03:53:43;;;;;;;21.42;9.68;;;9.00;99.90;;;;;;6727811;88;20647;-76
2021/05/28 04:03:44;;;;;;;18.80;9.65;;;9.00;99.90;;;;;;6725929;88;20218;-75
2021/05/28 04:13:45;;;;;;;19.10;10.30;;;9.10;99.90;;;;;;6715703;88;20798;-75
2021/05/28 04:23:45;;;;;;;19.55;10.20;;;9.30;99.90;;;;;;6715876;88;20697;-75
2021/05/28 04:33:46;;;;;;;16.25;9.45;;;9.50;99.90;;;;;;6716215;88;20251;-76
2021/05/28 04:43:46;;;;;;;17.87;9.37;;;9.70;99.90;;;;;;6715837;88;20246;-75
2021/05/28 04:53:47;;;;;;;16.87;9.40;;;9.80;99.90;;;;;;6721487;88;20177;-75
2021/05/28 05:03:47;;;;;;;20.00;9.23;;;9.90;99.90;;;;;;6723720;88;20190;-75
2021/05/28 05:13:48;;;;;;;17.67;9.93;;;10.00;99.90;;;;;;6732592;88;20195;-74
2021/05/28 05:23:49;;;;;;;21.33;12.50;;;10.20;99.90;;;;;;6720535;88;20206;-75
2021/05/28 05:33:50;;;;;;;22.62;13.35;;;10.40;99.90;;;;;;6721793;88;20205;-75
2021/05/28 05:43:51;;;;;;;31.73;14.93;;;10.70;99.90;;;;;;6697886;88;20210;-76
2021/05/28 05:53:51;;;;;;;28.02;15.35;;;11.10;99.90;;;;;;6697515;88;20194;-76
2021/05/28 06:03:52;;;;;;;27.40;14.10;;;11.60;99.90;;;;;;6717711;88;20230;-75
2021/05/28 06:13:52;;;;;;;25.65;13.75;;;12.20;99.90;;;;;;6731661;88;20567;-75
2021/05/28 06:23:53;;;;;;;22.75;13.68;;;12.30;99.90;;;;;;6732211;88;20612;-74
2021/05/28 06:33:54;;;;;;;17.15;11.45;;;12.90;99.90;;;;;;6718277;88;20202;-75
2021/05/28 06:43:55;;;;;;;18.33;10.80;;;14.00;99.90;;;;;;6714806;88;20185;-75
2021/05/28 06:53:55;;;;;;;13.65;8.30;;;14.50;99.90;;;;;;6712829;88;20704;-76
2021/05/28 07:04:00;;;;;;;17.17;8.50;;;15.20;99.90;;;;;;6709693;88;20237;-75
2021/05/28 07:14:00;;;;;;;11.90;6.90;;;15.70;99.90;;;;;;6719966;88;20200;-76
2021/05/28 07:24:01;;;;;;;9.10;4.07;;;16.40;99.90;;;;;;6713323;88;20193;-75
2021/05/28 07:34:02;;;;;;;11.23;5.50;;;16.40;99.90;;;;;;6723247;88;20237;-75
2021/05/28 07:44:04;;;;;;;5.68;2.58;;;16.80;99.90;;;;;;6712892;88;20690;-75
2021/05/28 07:54:05;;;;;;;6.12;3.67;;;16.90;99.90;;;;;;6719759;88;20206;-75
2021/05/28 08:04:06;;;;;;;7.43;3.50;;;16.90;99.90;;;;;;6721056;88;20232;-75
2021/05/28 08:14:07;;;;;;;4.87;3.03;;;18.00;99.90;;;;;;6722775;88;20224;-75
2021/05/28 08:24:08;;;;;;;6.28;3.22;;;18.60;99.90;;;;;;6724381;88;20181;-74
2021/05/28 08:34:09;;;;;;;5.62;3.40;;;19.00;99.90;;;;;;6719046;88;20196;-74
2021/05/28 08:44:10;;;;;;;6.75;3.10;;;19.00;99.90;;;;;;6721643;88;20356;-75
2021/05/28 08:54:11;;;;;;;6.05;2.80;;;20.20;99.90;;;;;;6725027;88;20304;-76
2021/05/28 09:04:12;;;;;;;4.78;2.53;;;19.60;99.90;;;;;;6716653;88;20261;-75
2021/05/28 09:14:31;;;;;;;6.35;2.58;;;19.80;99.50;;;;;;6722148;88;20251;-76
2021/05/28 09:24:35;;;;;;;5.35;2.80;;;20.70;99.80;;;;;;6714611;88;20186;-78
2021/05/28 09:34:37;;;;;;;4.57;2.20;;;20.70;97.40;;;;;;6713982;88;20332;-76
2021/05/28 09:44:37;;;;;;;4.97;2.42;;;21.00;97.20;;;;;;6714612;88;20185;-76
2021/05/28 09:54:59;;;;;;;3.97;2.10;;;20.30;97.20;;;;;;6714554;88;20365;-76
2021/05/28 10:05:01;;;;;;;6.68;1.80;;;19.80;97.50;;;;;;6705840;88;20267;-75
2021/05/28 10:15:01;;;;;;;3.67;2.00;;;20.50;97.90;;;;;;6713193;88;20235;-77
2021/05/28 10:25:05;;;;;;;4.10;2.00;;;20.30;99.60;;;;;;6711898;88;20322;-74
2021/05/28 10:35:06;;;;;;;2.95;1.80;;;21.80;95.90;;;;;;6713490;88;20344;-74
2021/05/28 10:45:07;;;;;;;4.03;2.00;;;22.90;94.70;;;;;;6707094;88;20241;-73
2021/05/28 10:55:12;;;;;;;3.20;1.80;;;22.40;90.70;;;;;;6712889;88;20182;-73
2021/05/28 11:05:13;;;;;;;2.87;1.60;;;23.30;82.70;;;;;;6711562;88;20311;-73
2021/05/28 11:15:16;;;;;;;3.65;1.50;;;22.30;84.80;;;;;;6711049;88;20224;-74
2021/05/28 11:25:28;;;;;;;2.30;1.50;;;23.10;85.30;;;;;;6722296;88;20700;-75
2021/05/28 11:35:30;;;;;;;2.95;1.55;;;23.80;79.70;;;;;;6723868;88;20191;-75
2021/05/28 11:45:31;;;;;;;3.72;1.60;;;24.40;79.40;;;;;;6724817;88;20203;-76
2021/05/28 11:55:46;;;;;;;2.58;1.67;;;23.70;81.50;;;;;;6720177;88;20236;-75
2021/05/28 12:05:48;;;;;;;4.05;1.60;;;23.90;75.70;;;;;;6716118;88;20241;-75
2021/05/28 12:15:51;;;;;;;3.60;1.70;;;23.90;72.90;;;;;;6722280;88;20170;-75
2021/05/28 12:25:54;;;;;;;2.70;1.50;;;23.50;72.90;;;;;;6723655;88;20299;-74
2021/05/28 12:35:57;;;;;;;3.08;1.60;;;23.80;74.90;;;;;;6715093;88;20319;-75
2021/05/28 12:45:59;;;;;;;3.37;1.67;;;22.90;70.70;;;;;;6716788;88;20194;-76
2021/05/28 12:55:59;;;;;;;2.87;1.35;;;23.50;76.20;;;;;;6723786;88;20408;-75
2021/05/28 13:06:00;;;;;;;3.23;1.40;;;24.20;72.60;;;;;;6719021;88;20185;-75
2021/05/28 13:16:05;;;;;;;2.00;1.53;;;24.40;67.90;;;;;;6716241;88;20621;-74
2021/05/28 13:26:09;;;;;;;2.95;1.25;;;24.00;70.30;;;;;;6715709;88;20484;-74
2021/05/28 13:36:21;;;;;;;;;;;22.50;70.50;;;;;;6716989;88;20193;-74
2021/05/28 13:46:23;;;;;;;3.00;1.20;;;24.00;70.50;;;;;;6713379;88;20057;-75
2021/05/28 13:56:23;;;;;;;2.97;1.30;;;25.00;66.00;;;;;;6720379;88;20661;-75
2021/05/28 14:06:24;;;;;;;3.58;1.40;;;24.50;67.40;;;;;;6715113;88;20249;-75
2021/05/28 14:16:25;;;;;;;2.08;1.33;;;23.80;65.40;;;;;;6713941;88;20243;-74
2021/05/28 14:26:27;;;;;;;2.40;1.35;;;24.10;68.60;;;;;;6714312;88;20189;-77
2021/05/28 14:36:30;;;;;;;4.15;1.30;;;23.70;66.40;;;;;;6714253;88;20298;-74
2021/05/28 14:46:31;;;;;;;4.70;1.30;;;24.70;64.60;;;;;;6712390;88;20205;-75
2021/05/28 14:56:32;;;;;;;4.22;1.30;;;25.50;62.60;;;;;;6712436;88;20303;-74
2021/05/28 15:06:32;;;;;;;3.90;1.20;;;25.20;61.60;;;;;;6740928;77;20212;-79
2021/05/28 15:16:37;;;;;;;3.45;1.10;;;25.00;60.30;;;;;;6744004;88;20181;-77
2021/05/28 15:26:38;;;;;;;3.10;1.90;;;24.80;61.50;;;;;;6743245;88;20246;-78
2021/05/28 15:36:38;;;;;;;2.47;1.30;;;24.70;60.00;;;;;;6747980;88;20620;-78
2021/05/28 15:46:39;;;;;;;2.00;1.30;;;24.00;61.90;;;;;;6748290;88;20694;-78
2021/05/28 15:56:40;;;;;;;1.90;1.27;;;24.90;60.50;;;;;;6749134;88;20676;-76
2021/05/28 16:06:40;;;;;;;2.12;1.23;;;25.20;58.80;;;;;;6739585;88;20186;-77
2021/05/28 16:16:41;;;;;;;2.17;1.30;;;24.90;60.00;;;;;;6746096;88;20177;-76
2021/05/28 16:26:43;;;;;;;2.13;1.37;;;25.00;59.90;;;;;;6748109;88;20212;-78
2021/05/28 16:36:43;;;;;;;2.65;1.40;;;23.60;62.70;;;;;;6748014;88;20177;-77
2021/05/28 16:46:44;;;;;;;4.22;1.70;;;23.00;64.40;;;;;;6748222;88;20205;-78
2021/05/28 16:56:44;;;;;;;4.53;1.50;;;22.20;66.70;;;;;;6747734;88;20247;-77
2021/05/28 17:06:45;;;;;;;3.35;1.50;;;22.20;66.50;;;;;;6747227;88;20750;-76
2021/05/28 17:16:45;;;;;;;3.37;1.60;;;22.10;65.80;;;;;;6743376;88;20657;-78
2021/05/28 17:26:47;;;;;;;6.50;1.40;;;23.20;61.60;;;;;;6738900;88;20573;-78
2021/05/28 17:36:47;;;;;;;2.33;1.50;;;23.40;62.30;;;;;;6729342;88;20173;-79
2021/05/28 17:46:49;;;;;;;2.87;1.42;;;23.70;60.80;;;;;;6745229;88;20192;-78
2021/05/28 17:56:49;;;;;;;3.45;1.60;;;23.40;61.50;;;;;;6742812;88;20181;-78
2021/05/28 18:06:50;;;;;;;4.53;1.55;;;22.80;62.00;;;;;;6742012;88;20569;-77
2021/05/28 18:16:52;;;;;;;4.07;1.70;;;22.20;62.60;;;;;;6744538;88;20181;-77
2021/05/28 18:26:52;;;;;;;5.47;2.05;;;21.00;66.90;;;;;;6736088;88;20700;-78
2021/05/28 18:36:53;;;;;;;4.10;2.00;;;20.30;69.30;;;;;;6731987;88;20188;-76
2021/05/28 18:46:54;;;;;;;3.47;2.20;;;20.00;69.30;;;;;;6745824;88;20190;-77
2021/05/28 18:56:54;;;;;;;4.03;2.10;;;19.70;69.20;;;;;;6745648;88;20204;-76
2021/05/28 19:06:55;;;;;;;3.28;1.80;;;19.20;71.80;;;;;;6744567;88;20301;-77
2021/05/28 19:16:55;;;;;;;4.78;2.05;;;18.70;73.50;;;;;;6746028;88;20193;-77
2021/05/28 19:26:56;;;;;;;3.45;1.92;;;18.30;76.60;;;;;;6741623;88;20657;-77
2021/05/28 19:36:57;;;;;;;2.85;1.75;;;18.00;80.30;;;;;;6734974;88;20221;-78
2021/05/28 19:46:57;;;;;;;3.42;1.60;;;17.50;83.30;;;;;;6737445;88;20233;-78
2021/05/28 19:56:58;;;;;;;3.70;1.52;;;17.00;87.10;;;;;;6737640;88;20193;-79
2021/05/28 20:06:58;;;;;;;2.42;1.60;;;16.60;91.80;;;;;;6741786;88;20705;-79
2021/05/28 20:16:59;;;;;;;3.28;1.58;;;16.20;93.00;;;;;;6740107;88;20714;-77
2021/05/28 20:27:02;;;;;;;3.37;1.45;;;15.90;95.50;;;;;;6743223;88;20267;-78
2021/05/28 20:37:02;;;;;;;3.72;1.62;;;15.50;98.80;;;;;;6745296;88;20204;-78
2021/05/28 20:47:03;;;;;;;3.30;1.87;;;15.10;99.90;;;;;;6738577;88;20192;-78
2021/05/28 21:07:05;;;;;;;4.60;2.65;;;14.70;99.90;;;;;;6746574;76;20188;-77
2021/05/28 21:17:06;;;;;;;5.80;2.72;;;14.60;99.90;;;;;;6730885;88;20382;-77
2021/05/28 21:27:07;;;;;;;5.60;3.33;;;14.30;99.90;;;;;;6723673;88;20761;-77
2021/05/28 21:37:07;;;;;;;6.95;2.87;;;14.00;99.90;;;;;;6719507;88;20233;-77
2021/05/28 21:47:08;;;;;;;6.72;3.60;;;13.80;99.90;;;;;;6716209;88;20186;-78
2021/05/28 21:57:08;;;;;;;6.70;3.83;;;13.60;99.90;;;;;;6720092;88;20215;-78
2021/05/28 22:07:09;;;;;;;5.68;4.07;;;13.30;99.90;;;;;;6722592;88;20511;-78
2021/05/28 22:17:09;;;;;;;8.43;4.35;;;13.10;99.90;;;;;;6720804;88;20190;-76
2021/05/28 22:27:10;;;;;;;6.43;3.75;;;12.90;99.90;;;;;;6719281;88;20239;-75
2021/05/28 22:37:13;;;;;;;5.68;3.72;;;12.80;99.90;;;;;;6724479;88;20213;-77
2021/05/28 22:47:13;;;;;;;8.57;4.45;;;12.60;99.90;;;;;;6727836;88;20426;-76
2021/05/28 22:57:14;;;;;;;6.40;3.80;;;12.60;99.90;;;;;;6728362;88;20249;-78
2021/05/28 23:07:14;;;;;;;8.50;3.95;;;12.40;99.90;;;;;;6725278;88;20190;-76
2021/05/28 23:17:15;;;;;;;8.10;3.83;;;12.00;99.90;;;;;;6728242;88;20683;-75
2021/05/28 23:27:16;;;;;;;5.62;3.53;;;11.90;99.90;;;;;;6726187;88;20428;-77
2021/05/28 23:37:17;;;;;;;7.15;3.17;;;11.70;99.90;;;;;;6726557;88;20206;-77
2021/05/28 23:47:19;;;;;;;7.45;3.50;;;11.60;99.90;;;;;;6730085;88;20219;-76
2021/05/28 23:57:20;;;;;;;4.80;3.00;;;11.20;99.90;;;;;;6731302;88;20185;-74
